createdAt,value
2019-06-20T00:01:08.521Z,61.58
2019-06-20T00:03:42.514Z,61.45
2019-06-20T00:06:16.379Z,61.42
2019-06-20T00:08:50.559Z,61.40
2019-06-20T00:11:24.632Z,61.66
2019-06-20T00:13:58.865Z,60.75
2019-06-20T00:16:32.930Z,60.24
2019-06-20T00:19:07.315Z,59.91
2019-06-20T00:21:41.633Z,59.72
2019-06-20T00:24:15.756Z,59.63
2019-06-20T00:26:49.765Z,59.57
2019-06-20T00:29:23.718Z,59.46
2019-06-20T00:31:57.943Z,59.48
2019-06-20T00:34:32.285Z,59.46
2019-06-20T00:37:06.624Z,59.49
2019-06-20T00:39:40.825Z,59.49
2019-06-20T00:42:14.860Z,59.54
2019-06-20T00:44:48.923Z,59.54
2019-06-20T00:47:23.076Z,59.46
2019-06-20T00:49:57.206Z,59.43
2019-06-20T00:52:31.198Z,59.66
2019-06-20T00:55:05.367Z,59.88
2019-06-20T00:57:39.556Z,59.88
2019-06-20T01:00:15.419Z,59.85
2019-06-20T01:02:50.062Z,59.88
2019-06-20T01:05:24.838Z,59.85
2019-06-20T01:08:01.317Z,59.82
2019-06-20T01:10:36.037Z,59.78
2019-06-20T01:13:10.856Z,59.80
2019-06-20T01:15:46.120Z,59.79
2019-06-20T01:18:20.980Z,59.75
2019-06-20T01:20:55.876Z,59.75
2019-06-20T01:23:30.030Z,59.77
2019-06-20T01:26:04.227Z,59.83
2019-06-20T01:28:38.057Z,59.81
2019-06-20T01:31:12.367Z,59.81
2019-06-20T01:33:46.482Z,59.80
2019-06-20T01:36:20.638Z,59.75
2019-06-20T01:38:54.564Z,59.79
2019-06-20T01:41:28.809Z,59.84
2019-06-20T01:44:02.972Z,59.83
2019-06-20T01:46:37.230Z,59.89
2019-06-20T01:49:11.394Z,59.89
2019-06-20T01:51:45.501Z,59.94
2019-06-20T01:54:19.874Z,59.91
2019-06-20T01:56:53.887Z,59.91
2019-06-20T01:59:28.021Z,59.98
2019-06-20T02:02:02.047Z,60.01
2019-06-20T02:04:36.328Z,60.03
2019-06-20T02:07:10.607Z,60.07
2019-06-20T02:09:44.685Z,60.61
2019-06-20T02:12:18.961Z,60.62
2019-06-20T02:14:53.160Z,60.62
2019-06-20T02:17:27.176Z,60.59
2019-06-20T02:20:01.368Z,60.63
2019-06-20T02:22:36.387Z,60.64
2019-06-20T02:25:11.036Z,60.61
2019-06-20T02:27:44.979Z,60.65
2019-06-20T02:30:19.118Z,60.71
2019-06-20T02:32:52.995Z,60.78
2019-06-20T02:35:28.478Z,60.84
2019-06-20T02:38:02.455Z,60.82
2019-06-20T02:40:36.906Z,60.90
2019-06-20T02:43:11.104Z,60.92
2019-06-20T02:45:45.466Z,60.97
2019-06-20T02:48:19.701Z,60.91
2019-06-20T02:50:53.933Z,60.89
2019-06-20T02:53:27.913Z,60.95
2019-06-20T02:56:01.988Z,60.85
2019-06-20T02:58:35.987Z,60.86
2019-06-20T03:01:10.177Z,60.80
2019-06-20T03:03:44.287Z,60.81
2019-06-20T03:06:18.449Z,60.78
2019-06-20T03:08:52.717Z,60.74
2019-06-20T03:11:26.880Z,60.73
2019-06-20T03:14:00.847Z,60.80
2019-06-20T03:16:35.670Z,60.85
2019-06-20T03:19:09.977Z,61.02
2019-06-20T03:21:44.138Z,61.17
2019-06-20T03:24:18.506Z,61.17
2019-06-20T03:26:52.826Z,61.16
2019-06-20T03:29:27.023Z,61.17
2019-06-20T03:32:01.282Z,61.51
2019-06-20T03:34:35.234Z,61.31
2019-06-20T03:37:09.198Z,61.26
2019-06-20T03:39:43.171Z,61.88
2019-06-20T03:42:17.212Z,61.80
2019-06-20T03:45:01.652Z,61.76
2019-06-20T03:47:26.969Z,63.59
2019-06-20T03:50:01.095Z,64.51
2019-06-20T03:52:35.294Z,64.75
2019-06-20T03:55:09.775Z,64.97
2019-06-20T03:57:43.816Z,65.11
2019-06-20T04:00:18.163Z,64.85
2019-06-20T04:02:52.410Z,64.72
2019-06-20T04:05:26.693Z,64.53
2019-06-20T04:08:00.771Z,64.37
2019-06-20T04:10:34.858Z,64.25
2019-06-20T04:13:09.022Z,64.25
2019-06-20T04:15:43.049Z,64.32
2019-06-20T04:18:17.024Z,64.11
2019-06-20T04:20:51.101Z,64.17
2019-06-20T04:23:25.361Z,64.25
2019-06-20T04:25:59.544Z,64.15
2019-06-20T04:28:33.567Z,64.04
2019-06-20T04:31:07.686Z,64.10
2019-06-20T04:33:42.731Z,63.96
2019-06-20T04:36:16.985Z,63.73
2019-06-20T04:38:51.196Z,63.66
2019-06-20T04:41:25.614Z,63.72
2019-06-20T04:43:59.649Z,63.74
2019-06-20T04:46:46.196Z,63.50
2019-06-20T04:49:20.655Z,63.55
2019-06-20T04:51:54.802Z,63.62
2019-06-20T04:54:28.846Z,63.68
2019-06-20T04:57:03.052Z,63.66
2019-06-20T04:59:37.022Z,63.92
2019-06-20T05:02:14.782Z,66.64
2019-06-20T05:04:47.123Z,66.18
2019-06-20T05:07:22.345Z,66.08
2019-06-20T05:09:56.244Z,65.95
2019-06-20T05:12:30.290Z,65.84
2019-06-20T05:15:04.299Z,65.69
2019-06-20T05:17:38.341Z,65.57
2019-06-20T05:20:12.574Z,65.44
2019-06-20T05:22:46.728Z,65.35
2019-06-20T05:25:21.108Z,65.24
2019-06-20T05:27:55.296Z,65.14
2019-06-20T05:30:29.316Z,65.06
2019-06-20T05:33:03.454Z,64.97
2019-06-20T05:35:38.728Z,64.86
2019-06-20T05:38:13.480Z,64.79
2019-06-20T05:40:47.499Z,64.71
2019-06-20T05:43:27.475Z,64.65
2019-06-20T05:46:09.736Z,64.59
2019-06-20T05:48:37.429Z,64.57
2019-06-20T05:51:11.780Z,64.52
2019-06-20T05:53:46.942Z,64.48
2019-06-20T05:56:21.505Z,64.41
2019-06-20T05:58:55.618Z,64.37
2019-06-20T06:01:29.830Z,64.33
2019-06-20T06:04:04.939Z,64.30
2019-06-20T06:06:39.073Z,64.39
2019-06-20T06:09:14.171Z,65.47
2019-06-20T06:11:48.322Z,65.72
2019-06-20T06:14:22.558Z,65.61
2019-06-20T06:16:56.610Z,65.65
2019-06-20T06:19:30.607Z,65.80
2019-06-20T06:22:07.578Z,66.09
2019-06-20T06:24:41.966Z,66.36
2019-06-20T06:27:16.079Z,66.67
2019-06-20T06:29:50.730Z,67.00
2019-06-20T06:32:39.167Z,66.97
2019-06-20T06:35:01.873Z,66.28
2019-06-20T06:37:37.525Z,65.97
2019-06-20T06:40:12.316Z,66.03
2019-06-20T06:42:47.236Z,65.56
2019-06-20T06:45:24.908Z,65.42
2019-06-20T06:47:59.867Z,65.35
2019-06-20T06:50:35.583Z,65.12
2019-06-20T06:53:09.588Z,64.97
2019-06-20T06:55:43.800Z,65.21
2019-06-20T06:58:18.005Z,64.76
2019-06-20T07:00:52.435Z,64.84
2019-06-20T07:03:27.509Z,64.64
2019-06-20T07:06:03.940Z,64.51
2019-06-20T07:08:38.310Z,64.51
2019-06-20T07:11:13.611Z,64.51
2019-06-20T07:13:49.528Z,64.45
2019-06-20T07:16:25.425Z,64.40
2019-06-20T07:18:59.589Z,64.38
2019-06-20T07:21:36.003Z,64.18
2019-06-20T07:24:15.533Z,64.26
2019-06-20T07:26:53.826Z,64.13
2019-06-20T07:29:32.923Z,64.11
2019-06-20T07:32:12.977Z,64.09
2019-06-20T07:34:51.405Z,64.09
2019-06-20T07:37:27.887Z,63.99
2019-06-20T07:40:02.068Z,63.97
2019-06-20T07:42:39.517Z,63.87
2019-06-20T07:45:14.475Z,63.82
2019-06-20T07:47:52.249Z,63.80
2019-06-20T07:50:29.766Z,63.80
2019-06-20T07:53:04.880Z,63.73
2019-06-20T07:55:46.970Z,63.69
2019-06-20T07:58:22.657Z,63.71
2019-06-20T08:00:57.295Z,63.68
2019-06-20T08:03:31.437Z,63.70
2019-06-20T08:06:06.393Z,63.64
2019-06-20T08:08:42.140Z,63.62
2019-06-20T08:11:19.109Z,63.58
2019-06-20T08:13:54.757Z,63.50
2019-06-20T08:16:29.188Z,63.53
2019-06-20T08:19:04.330Z,63.44
2019-06-20T08:21:39.310Z,63.46
2019-06-20T08:24:20.412Z,63.37
2019-06-20T08:26:56.757Z,63.40
2019-06-20T08:29:33.820Z,63.38
2019-06-20T08:32:07.830Z,63.34
2019-06-20T08:34:41.644Z,63.29
2019-06-20T08:37:18.710Z,63.18
2019-06-20T08:39:53.509Z,63.17
2019-06-20T08:42:27.829Z,63.11
2019-06-20T08:45:01.923Z,63.13
2019-06-20T08:47:36.119Z,63.69
2019-06-20T08:50:10.737Z,62.93
2019-06-20T08:52:44.923Z,60.14
2019-06-20T08:55:20.118Z,58.03
2019-06-20T08:57:55.632Z,56.11
2019-06-20T09:00:30.938Z,54.70
2019-06-20T09:03:05.309Z,52.61
2019-06-20T09:05:39.708Z,50.87
2019-06-20T09:08:14.509Z,49.30
2019-06-20T09:10:48.743Z,48.25
2019-06-20T09:13:23.046Z,47.38
2019-06-20T09:15:57.149Z,46.37
2019-06-20T09:18:32.454Z,45.66
2019-06-20T09:21:06.505Z,44.98
2019-06-20T09:23:40.683Z,44.40
2019-06-20T09:26:15.039Z,43.76
2019-06-20T09:28:51.038Z,43.28
2019-06-20T09:31:25.932Z,42.91
2019-06-20T09:34:04.884Z,42.62
2019-06-20T09:36:38.193Z,42.32
2019-06-20T09:39:12.327Z,42.11
2019-06-20T09:41:47.407Z,41.98
2019-06-20T09:44:21.735Z,41.61
2019-06-20T09:46:56.447Z,41.23
2019-06-20T09:49:31.093Z,41.07
2019-06-20T09:52:06.817Z,40.77
2019-06-20T09:54:41.227Z,43.68
2019-06-20T09:57:15.582Z,42.77
2019-06-20T10:00:03.255Z,42.70
2019-06-20T10:02:27.354Z,42.76
2019-06-20T10:05:02.353Z,42.76
2019-06-20T10:07:37.981Z,43.19
2019-06-20T10:10:12.540Z,43.40
2019-06-20T10:12:48.039Z,43.57
2019-06-20T10:15:28.502Z,43.77
2019-06-20T10:18:02.796Z,43.96
2019-06-20T10:20:39.722Z,44.05
2019-06-20T10:23:15.368Z,44.04
2019-06-20T10:25:51.514Z,44.03
2019-06-20T10:28:27.214Z,44.25
2019-06-20T10:31:01.295Z,44.24
2019-06-20T10:33:35.236Z,44.55
2019-06-20T10:36:09.620Z,44.69
2019-06-20T10:38:45.335Z,44.85
2019-06-20T10:41:19.548Z,45.01
2019-06-20T10:43:54.118Z,45.15
2019-06-20T10:46:28.451Z,45.26
2019-06-20T10:49:03.922Z,45.27
2019-06-20T10:51:56.551Z,45.33
2019-06-20T10:54:31.463Z,45.42
2019-06-20T10:57:05.775Z,45.48
2019-06-20T10:59:44.259Z,45.54
2019-06-20T11:02:21.600Z,45.53
2019-06-20T11:05:00.370Z,45.57
2019-06-20T11:07:34.536Z,45.57
2019-06-20T11:10:11.319Z,45.61
2019-06-20T11:12:52.407Z,45.63
2019-06-20T11:15:28.424Z,45.69
2019-06-20T11:18:03.867Z,45.58
2019-06-20T11:20:39.501Z,45.53
2019-06-20T11:23:15.804Z,45.60
2019-06-20T11:25:50.095Z,45.59
2019-06-20T11:28:24.202Z,45.52
2019-06-20T11:31:00.623Z,45.52
2019-06-20T11:33:36.587Z,45.53
2019-06-20T11:36:11.271Z,45.43
2019-06-20T11:38:45.774Z,45.35
2019-06-20T11:41:21.195Z,45.25
2019-06-20T11:43:55.182Z,45.31
2019-06-20T11:46:30.546Z,45.27
2019-06-20T11:49:04.469Z,45.27
2019-06-20T11:51:39.859Z,45.22
2019-06-20T11:54:14.295Z,45.17
2019-06-20T11:56:48.293Z,45.23
2019-06-20T11:59:22.472Z,45.18
2019-06-20T12:01:56.333Z,45.15
2019-06-20T12:04:31.247Z,45.06
2019-06-20T12:07:06.237Z,44.99
2019-06-20T12:09:40.939Z,45.06
2019-06-20T12:12:15.284Z,44.98
2019-06-20T12:14:49.813Z,44.93
2019-06-20T12:17:24.168Z,44.90
2019-06-20T12:19:58.279Z,44.98
2019-06-20T12:22:32.518Z,44.88
2019-06-20T12:25:06.711Z,44.84
2019-06-20T12:27:42.951Z,44.79
2019-06-20T12:30:19.603Z,44.89
2019-06-20T12:32:53.758Z,44.82
2019-06-20T12:35:28.292Z,44.79
2019-06-20T12:38:02.345Z,44.84
2019-06-20T12:40:39.080Z,44.71
2019-06-20T12:43:12.560Z,44.71
2019-06-20T12:45:47.419Z,44.73
2019-06-20T12:48:21.687Z,44.64
2019-06-20T12:50:55.893Z,44.49
2019-06-20T12:53:30.292Z,44.61
2019-06-20T12:56:04.334Z,44.53
2019-06-20T12:58:39.460Z,44.47
2019-06-20T13:01:14.531Z,44.77
2019-06-20T13:03:50.474Z,46.26
2019-06-20T13:06:24.735Z,45.83
2019-06-20T13:08:58.979Z,45.12
2019-06-20T13:11:33.275Z,44.50
2019-06-20T13:14:07.877Z,43.87
2019-06-20T13:16:42.783Z,43.21
2019-06-20T13:19:17.270Z,42.83
2019-06-20T13:22:06.910Z,42.52
2019-06-20T13:24:41.059Z,42.28
2019-06-20T13:27:15.047Z,41.98
2019-06-20T13:29:49.508Z,41.77
2019-06-20T13:32:23.693Z,41.50
2019-06-20T13:34:58.025Z,42.46
2019-06-20T13:37:32.188Z,42.75
2019-06-20T13:40:07.377Z,42.76
2019-06-20T13:42:43.649Z,42.90
2019-06-20T13:45:25.219Z,43.22
2019-06-20T13:47:59.280Z,43.32
2019-06-20T13:50:33.322Z,43.55
2019-06-20T13:53:07.583Z,43.64
2019-06-20T13:55:42.876Z,43.94
2019-06-20T13:58:18.096Z,43.94
2019-06-20T14:00:52.822Z,44.06
2019-06-20T14:03:26.917Z,44.18
2019-06-20T14:06:00.997Z,44.32
2019-06-20T14:08:35.341Z,44.46
2019-06-20T14:11:09.440Z,44.59
2019-06-20T14:13:46.799Z,44.73
2019-06-20T14:16:19.949Z,44.90
2019-06-20T14:18:57.047Z,45.08
2019-06-20T14:21:31.234Z,45.21
2019-06-20T14:24:05.145Z,45.41
2019-06-20T14:26:39.308Z,47.19
2019-06-20T14:29:13.489Z,47.20
2019-06-20T14:31:47.680Z,47.26
2019-06-20T14:34:21.646Z,47.49
2019-06-20T14:36:57.886Z,47.64
2019-06-20T14:39:34.262Z,47.88
2019-06-20T14:42:09.444Z,48.09
2019-06-20T14:44:44.641Z,48.28
2019-06-20T14:47:20.993Z,48.55
2019-06-20T14:49:55.429Z,48.80
2019-06-20T14:52:29.691Z,49.05
2019-06-20T14:55:04.024Z,49.28
2019-06-20T14:57:38.279Z,49.50
2019-06-20T15:00:13.270Z,49.79
2019-06-20T15:02:48.002Z,49.98
2019-06-20T15:05:23.331Z,50.12
2019-06-20T15:07:57.807Z,50.36
2019-06-20T15:10:32.020Z,50.55
2019-06-20T15:13:07.180Z,50.86
2019-06-20T15:15:41.455Z,50.86
2019-06-20T15:18:15.589Z,50.91
2019-06-20T15:20:50.241Z,51.03
2019-06-20T15:23:25.922Z,51.15
2019-06-20T15:26:00.142Z,51.28
2019-06-20T15:28:34.427Z,51.28
2019-06-20T15:31:08.792Z,51.43
2019-06-20T15:33:43.984Z,51.43
2019-06-20T15:36:18.175Z,51.45
2019-06-20T15:38:53.059Z,51.44
2019-06-20T15:41:27.579Z,51.53
2019-06-20T15:44:01.876Z,51.88
2019-06-20T15:46:35.944Z,51.77
2019-06-20T15:49:16.155Z,51.77
2019-06-20T15:51:46.341Z,50.76
2019-06-20T15:54:23.670Z,50.07
2019-06-20T15:56:56.522Z,49.41
2019-06-20T15:59:30.743Z,48.79
2019-06-20T16:02:05.040Z,48.42
2019-06-20T16:04:39.229Z,48.71
2019-06-20T16:07:15.034Z,49.36
2019-06-20T16:09:49.202Z,49.69
2019-06-20T16:12:23.360Z,50.17
2019-06-20T16:14:57.827Z,50.67
2019-06-20T16:17:31.905Z,51.79
2019-06-20T16:20:06.378Z,51.93
2019-06-20T16:22:40.798Z,51.32
2019-06-20T16:25:15.447Z,51.48
2019-06-20T16:27:49.747Z,51.94
2019-06-20T16:30:25.450Z,52.82
2019-06-20T16:33:00.125Z,53.22
2019-06-20T16:35:34.417Z,53.52
2019-06-20T16:38:08.653Z,53.77
2019-06-20T16:40:50.236Z,54.38
2019-06-20T16:43:24.368Z,53.40
2019-06-20T16:45:58.513Z,52.96
2019-06-20T16:48:32.913Z,53.55
2019-06-20T16:51:06.872Z,53.98
2019-06-20T16:53:41.087Z,54.25
2019-06-20T16:56:15.256Z,55.77
2019-06-20T16:58:49.499Z,54.90
2019-06-20T17:01:23.393Z,54.63
2019-06-20T17:03:57.562Z,54.07
2019-06-20T17:06:31.732Z,52.63
2019-06-20T17:09:08.415Z,53.66
2019-06-20T17:11:43.801Z,53.54
2019-06-20T17:14:17.812Z,52.95
2019-06-20T17:16:53.210Z,52.65
2019-06-20T17:19:27.391Z,52.38
2019-06-20T17:22:01.368Z,52.23
2019-06-20T17:24:35.323Z,51.92
2019-06-20T17:27:09.599Z,51.13
2019-06-20T17:29:43.708Z,51.51
2019-06-20T17:32:17.851Z,52.15
2019-06-20T17:34:52.040Z,52.02
2019-06-20T17:37:26.042Z,51.86
2019-06-20T17:39:59.940Z,51.82
2019-06-20T17:42:34.800Z,52.86
2019-06-20T17:45:09.595Z,52.43
2019-06-20T17:47:43.650Z,51.81
2019-06-20T17:50:19.380Z,51.19
2019-06-20T17:52:53.238Z,51.99
2019-06-20T17:55:28.181Z,52.67
2019-06-20T17:58:02.387Z,52.67
2019-06-20T18:00:37.151Z,52.71
2019-06-20T18:03:11.254Z,52.76
2019-06-20T18:05:45.307Z,52.75
2019-06-20T18:08:19.516Z,52.82
2019-06-20T18:10:53.812Z,52.36
2019-06-20T18:13:27.993Z,51.61
2019-06-20T18:16:02.171Z,52.85
2019-06-20T18:18:36.131Z,53.11
2019-06-20T18:21:10.424Z,52.98
2019-06-20T18:23:44.876Z,52.95
2019-06-20T18:26:19.271Z,52.95
2019-06-20T18:28:53.593Z,53.00
2019-06-20T18:31:27.697Z,52.84
2019-06-20T18:34:02.102Z,52.31
2019-06-20T18:36:36.287Z,52.34
2019-06-20T18:39:11.457Z,53.02
2019-06-20T18:41:47.520Z,53.73
2019-06-20T18:44:21.821Z,53.49
2019-06-20T18:46:55.941Z,53.29
2019-06-20T18:49:30.007Z,53.16
2019-06-20T18:52:04.273Z,53.06
2019-06-20T18:54:38.358Z,53.02
2019-06-20T18:57:12.532Z,52.31
2019-06-20T18:59:46.801Z,54.13
2019-06-20T19:02:21.089Z,53.92
2019-06-20T19:04:54.993Z,53.70
2019-06-20T19:07:29.071Z,53.62
2019-06-20T19:10:03.447Z,53.63
2019-06-20T19:12:37.455Z,53.58
2019-06-20T19:15:11.744Z,53.61
2019-06-20T19:17:45.681Z,53.04
2019-06-20T19:20:20.172Z,52.89
2019-06-20T19:22:54.387Z,53.61
2019-06-20T19:25:28.550Z,53.57
2019-06-20T19:28:02.473Z,53.54
2019-06-20T19:30:50.545Z,53.52
2019-06-20T19:33:24.713Z,53.85
2019-06-20T19:35:59.183Z,54.53
2019-06-20T19:38:33.422Z,55.13
2019-06-20T19:41:07.734Z,55.34
2019-06-20T19:43:42.011Z,56.51
2019-06-20T19:46:16.170Z,57.56
2019-06-20T19:48:50.239Z,58.16
2019-06-20T19:51:25.394Z,58.59
2019-06-20T19:54:00.683Z,58.88
2019-06-20T19:56:34.645Z,59.26
2019-06-20T19:59:09.022Z,59.54
2019-06-20T20:01:43.281Z,58.75
2019-06-20T20:04:17.267Z,58.08
2019-06-20T20:06:51.327Z,59.56
2019-06-20T20:09:25.562Z,59.82
2019-06-20T20:11:59.720Z,59.99
2019-06-20T20:14:33.607Z,59.93
2019-06-20T20:17:07.881Z,59.96
2019-06-20T20:19:42.030Z,59.91
2019-06-20T20:22:16.195Z,59.91
2019-06-20T20:24:50.306Z,59.21
2019-06-20T20:27:24.502Z,57.96
2019-06-20T20:29:58.505Z,58.39
2019-06-20T20:32:32.594Z,58.14
2019-06-20T20:35:07.194Z,59.23
2019-06-20T20:37:41.382Z,59.38
2019-06-20T20:40:15.722Z,59.42
2019-06-20T20:42:49.764Z,59.45
2019-06-20T20:45:24.381Z,59.50
2019-06-20T20:47:58.770Z,58.74
2019-06-20T20:50:33.045Z,58.72
2019-06-20T20:53:07.245Z,59.57
2019-06-20T20:55:41.660Z,59.77
2019-06-20T20:58:15.749Z,59.80
2019-06-20T21:01:05.922Z,59.77
2019-06-20T21:03:40.163Z,58.43
2019-06-20T21:06:14.492Z,58.95
2019-06-20T21:08:48.451Z,58.82
2019-06-20T21:11:22.465Z,58.51
2019-06-20T21:13:56.723Z,59.03
2019-06-20T21:16:31.316Z,59.67
2019-06-20T21:19:05.664Z,59.80
2019-06-20T21:21:39.969Z,59.83
2019-06-20T21:24:14.203Z,59.80
2019-06-20T21:26:50.065Z,59.84
2019-06-20T21:29:25.213Z,59.94
2019-06-20T21:31:59.511Z,59.36
2019-06-20T21:34:33.794Z,57.53
2019-06-20T21:37:07.884Z,59.04
2019-06-20T21:39:42.020Z,59.55
2019-06-20T21:42:16.047Z,59.66
2019-06-20T21:44:50.198Z,59.76
2019-06-20T21:47:24.317Z,59.83
2019-06-20T21:49:58.495Z,59.87
2019-06-20T21:52:32.306Z,59.96
2019-06-20T21:55:06.464Z,59.42
2019-06-20T21:57:40.485Z,59.59
2019-06-20T22:00:17.818Z,60.65
2019-06-20T22:02:53.488Z,61.17
2019-06-20T22:05:27.465Z,60.85
2019-06-20T22:08:01.588Z,61.13
2019-06-20T22:10:36.125Z,61.31
2019-06-20T22:13:10.214Z,61.48
2019-06-20T22:15:44.469Z,61.37
2019-06-20T22:18:18.695Z,60.37
2019-06-20T22:20:52.665Z,61.04
2019-06-20T22:23:27.904Z,61.74
2019-06-20T22:26:02.037Z,62.15
2019-06-20T22:28:36.244Z,62.27
2019-06-20T22:31:10.501Z,62.33
2019-06-20T22:33:44.659Z,61.86
2019-06-20T22:36:19.051Z,61.94
2019-06-20T22:38:53.431Z,61.73
2019-06-20T22:41:27.865Z,60.76
2019-06-20T22:44:02.075Z,61.59
2019-06-20T22:46:36.281Z,62.38
2019-06-20T22:49:10.416Z,62.89
2019-06-20T22:51:44.624Z,63.16
2019-06-20T22:54:18.762Z,63.30
2019-06-20T22:56:53.148Z,63.43
2019-06-20T22:59:27.271Z,63.54
2019-06-20T23:02:01.484Z,62.91
2019-06-20T23:04:35.828Z,61.46
2019-06-20T23:07:09.938Z,62.60
2019-06-20T23:09:44.051Z,63.08
2019-06-20T23:12:18.259Z,63.41
2019-06-20T23:14:52.328Z,63.58
2019-06-20T23:17:26.426Z,63.75
2019-06-20T23:20:00.632Z,63.82
2019-06-20T23:22:35.225Z,63.85
2019-06-20T23:25:09.950Z,63.08
2019-06-20T23:27:44.203Z,62.76
2019-06-20T23:30:19.330Z,63.42
2019-06-20T23:32:53.661Z,63.62
2019-06-20T23:35:27.775Z,63.52
2019-06-20T23:38:04.497Z,63.86
2019-06-20T23:40:37.730Z,64.08
2019-06-20T23:43:12.114Z,64.23
2019-06-20T23:45:46.302Z,64.28
2019-06-20T23:48:20.589Z,62.98
2019-06-20T23:50:54.496Z,63.39
2019-06-20T23:53:29.158Z,63.92
2019-06-20T23:56:07.854Z,64.22
2019-06-20T23:58:40.173Z,64.43
